Time;durP1;ratioP1;P1;durP2;ratioP2;P2;SDS_P1;SDS_P2;PMS_P1;PMS_P2;Temp;Humidity;BMP_temperature;BMP_pressure;BME280_temperature;BME280_humidity;BME280_pressure;Samples;Min_cycle;Max_cycle;Signal;HPM_P1;HPM_P2
2023/12/23 00:01:28;;;;;;;0.00;0.00;;;12.50;77.40;;;;;;5085373;28;20214;-40
2023/12/23 00:04:01;;;;;;;0.00;0.00;;;12.50;77.40;;;;;;5071994;28;20297;-40
2023/12/23 00:06:30;;;;;;;0.00;0.00;;;12.40;77.30;;;;;;5083501;28;20475;-40
2023/12/23 00:09:00;;;;;;;0.00;0.00;;;12.40;77.20;;;;;;5084518;28;20218;-40
2023/12/23 00:11:29;;;;;;;0.00;0.00;;;12.40;77.20;;;;;;5085145;28;20203;-41
2023/12/23 00:13:59;;;;;;;0.00;0.00;;;12.40;77.10;;;;;;5065707;28;20195;-40
2023/12/23 00:16:31;;;;;;;0.00;0.00;;;12.40;77.50;;;;;;5080206;28;20293;-40
2023/12/23 00:19:00;;;;;;;0.00;0.00;;;12.40;77.10;;;;;;5079626;28;20214;-40
2023/12/23 00:21:30;;;;;;;0.00;0.00;;;12.40;77.30;;;;;;5071256;28;20191;-40
2023/12/23 00:23:59;;;;;;;0.00;0.00;;;12.40;77.50;;;;;;5071053;28;20823;-40
2023/12/23 00:26:26;;;;;;;0.00;0.00;;;12.30;77.30;;;;;;5063045;28;20276;-40
2023/12/23 00:28:56;;;;;;;0.00;0.00;;;12.30;77.40;;;;;;5072995;28;20215;-41
2023/12/23 00:31:28;;;;;;;0.00;0.00;;;12.30;77.30;;;;;;5072410;28;21361;-40
2023/12/23 00:33:55;;;;;;;0.00;0.00;;;12.30;77.20;;;;;;5075166;28;20194;-40
2023/12/23 00:36:22;;;;;;;0.00;0.00;;;12.30;77.40;;;;;;5074129;28;20739;-41
2023/12/23 00:38:54;;;;;;;0.00;0.00;;;12.30;77.00;;;;;;5076870;28;20753;-40
2023/12/23 00:41:24;;;;;;;0.00;0.00;;;12.30;77.40;;;;;;5073657;28;20264;-41
2023/12/23 00:43:51;;;;;;;0.00;0.00;;;12.30;77.40;;;;;;5077496;28;20550;-41
2023/12/23 00:46:20;;;;;;;0.00;0.00;;;12.30;77.40;;;;;;5075241;28;20198;-41
2023/12/23 00:48:47;;;;;;;0.00;0.00;;;12.30;77.50;;;;;;5078057;28;20223;-41
2023/12/23 00:51:15;;;;;;;0.00;0.00;;;12.20;77.40;;;;;;5074946;28;20321;-40
2023/12/23 00:53:42;;;;;;;0.00;0.00;;;12.30;77.40;;;;;;5076180;28;20307;-40
2023/12/23 00:56:24;;;;;;;0.00;0.00;;;12.30;77.40;;;;;;5078944;28;20851;-40
2023/12/23 00:58:52;;;;;;;0.00;0.00;;;12.30;77.30;;;;;;5073781;28;20199;-40
2023/12/23 01:01:24;;;;;;;0.00;0.00;;;12.30;77.20;;;;;;5070846;28;20203;-39
2023/12/23 01:03:56;;;;;;;0.00;0.00;;;12.30;77.20;;;;;;5061885;28;20194;-40
2023/12/23 01:06:23;;;;;;;0.00;0.00;;;12.20;77.30;;;;;;5078575;28;20231;-40
2023/12/23 01:08:50;;;;;;;0.00;0.00;;;12.20;77.40;;;;;;5072363;28;20282;-40
2023/12/23 01:11:17;;;;;;;0.00;0.00;;;12.20;77.30;;;;;;5069736;28;20210;-40
2023/12/23 01:13:50;;;;;;;0.00;0.00;;;12.20;77.30;;;;;;5079843;28;20649;-39
2023/12/23 01:16:17;;;;;;;0.00;0.00;;;12.20;77.20;;;;;;5075320;28;20254;-39
2023/12/23 01:18:44;;;;;;;0.00;0.00;;;12.20;77.10;;;;;;5076570;28;20203;-40
2023/12/23 01:21:20;;;;;;;0.00;0.00;;;12.20;77.10;;;;;;5061707;28;20218;-40
2023/12/23 01:23:47;;;;;;;0.00;0.00;;;12.20;77.30;;;;;;5078029;28;20209;-39
2023/12/23 01:26:19;;;;;;;0.00;0.00;;;12.20;77.30;;;;;;5076648;28;20564;-40
2023/12/23 01:28:51;;;;;;;0.00;0.00;;;12.20;77.20;;;;;;5076782;28;20218;-40
2023/12/23 01:31:21;;;;;;;0.00;0.00;;;12.10;77.20;;;;;;5078083;28;20207;-40
2023/12/23 01:33:50;;;;;;;0.00;0.00;;;12.10;77.10;;;;;;5077926;28;20787;-40
2023/12/23 01:36:17;;;;;;;0.00;0.00;;;12.10;76.90;;;;;;5074057;28;20806;-40
2023/12/23 01:38:46;;;;;;;0.00;0.00;;;12.10;76.70;;;;;;5075918;28;20660;-40
2023/12/23 01:41:16;;;;;;;0.00;0.00;;;12.10;77.00;;;;;;5078498;28;20221;-40
2023/12/23 01:43:43;;;;;;;0.00;0.00;;;12.10;76.80;;;;;;5079070;28;20195;-40
2023/12/23 01:46:15;;;;;;;0.00;0.00;;;12.10;76.90;;;;;;5075878;28;20225;-41
2023/12/23 01:48:45;;;;;;;0.00;0.00;;;12.10;77.00;;;;;;5080238;28;20683;-39
2023/12/23 01:51:15;;;;;;;0.00;0.00;;;12.10;77.10;;;;;;5086177;28;20416;-41
2023/12/23 01:53:45;;;;;;;0.00;0.00;;;12.10;77.10;;;;;;5087774;28;20577;-40
2023/12/23 01:56:15;;;;;;;0.00;0.00;;;12.10;76.70;;;;;;5087559;28;20573;-41
2023/12/23 01:58:45;;;;;;;0.00;0.00;;;12.10;76.70;;;;;;5075208;28;20207;-40
2023/12/23 02:01:16;;;;;;;0.00;0.00;;;12.10;76.80;;;;;;5057349;28;20241;-40
2023/12/23 02:03:44;;;;;;;0.00;0.00;;;12.10;77.10;;;;;;5072557;28;20229;-39
2023/12/23 02:06:11;;;;;;;0.00;0.00;;;12.10;77.20;;;;;;5069040;28;20320;-37
2023/12/23 02:08:44;;;;;;;0.00;0.00;;;12.10;77.10;;;;;;5072897;28;20709;-40
2023/12/23 02:11:19;;;;;;;0.00;0.00;;;12.10;77.20;;;;;;5082039;28;20291;-40
2023/12/23 02:14:02;;;;;;;0.00;0.00;;;12.10;76.90;;;;;;5067238;28;20209;-39
2023/12/23 02:16:30;;;;;;;0.00;0.00;;;12.10;77.00;;;;;;5063880;28;20227;-39
2023/12/23 02:18:59;;;;;;;0.00;0.00;;;12.10;77.20;;;;;;5068345;28;20815;-40
2023/12/23 02:21:28;;;;;;;0.00;0.00;;;12.10;77.10;;;;;;5059667;28;20211;-40
2023/12/23 02:24:00;;;;;;;0.00;0.00;;;12.10;77.10;;;;;;5078312;28;20226;-40
2023/12/23 02:26:33;;;;;;;0.00;0.00;;;12.00;77.00;;;;;;5067071;28;20203;-40
2023/12/23 02:29:03;;;;;;;0.00;0.00;;;12.00;76.90;;;;;;5075172;28;20209;-39
2023/12/23 02:31:32;;;;;;;0.00;0.00;;;12.00;77.00;;;;;;5079356;28;20269;-40
2023/12/23 02:34:05;;;;;;;0.00;0.00;;;12.00;77.00;;;;;;5079562;28;20211;-39
2023/12/23 02:36:35;;;;;;;0.00;0.00;;;12.00;76.90;;;;;;5074452;28;20292;-40
2023/12/23 02:39:04;;;;;;;0.00;0.00;;;12.00;76.90;;;;;;5074136;28;20221;-40
2023/12/23 02:41:31;;;;;;;0.00;0.00;;;12.10;77.00;;;;;;5068349;28;20237;-40
2023/12/23 02:44:01;;;;;;;0.00;0.00;;;12.00;76.50;;;;;;5067661;28;20210;-39
2023/12/23 02:46:28;;;;;;;0.00;0.00;;;12.00;76.90;;;;;;5076299;28;20301;-40
2023/12/23 02:48:59;;;;;;;0.00;0.00;;;12.00;77.00;;;;;;5077117;28;20226;-39
2023/12/23 02:51:29;;;;;;;0.00;0.00;;;12.00;77.00;;;;;;5074716;28;20596;-39
2023/12/23 02:54:01;;;;;;;0.00;0.00;;;12.00;76.90;;;;;;5075754;28;20820;-39
2023/12/23 02:56:31;;;;;;;0.00;0.00;;;12.00;77.00;;;;;;5065234;28;20300;-39
2023/12/23 02:58:58;;;;;;;0.00;0.00;;;12.00;77.00;;;;;;5053155;28;20191;-39
2023/12/23 03:01:25;;;;;;;0.00;0.00;;;12.00;76.90;;;;;;5073683;28;20223;-40
2023/12/23 03:03:53;;;;;;;0.00;0.00;;;12.00;77.10;;;;;;5074758;28;20230;-39
2023/12/23 03:06:20;;;;;;;0.00;0.00;;;12.00;76.90;;;;;;5078230;28;20237;-39
2023/12/23 03:08:50;;;;;;;0.00;0.00;;;12.00;76.60;;;;;;5072041;28;20665;-40
2023/12/23 03:11:20;;;;;;;0.00;0.00;;;12.00;76.40;;;;;;5067881;28;20200;-39
2023/12/23 03:13:47;;;;;;;0.00;0.00;;;12.00;76.70;;;;;;5071588;28;20219;-40
2023/12/23 03:16:21;;;;;;;0.00;0.00;;;12.00;76.70;;;;;;5060863;28;20284;-39
2023/12/23 03:18:49;;;;;;;0.00;0.00;;;12.00;76.80;;;;;;5072817;28;20584;-39
2023/12/23 03:21:22;;;;;;;0.00;0.00;;;12.00;77.00;;;;;;5076484;28;20200;-39
2023/12/23 03:23:50;;;;;;;0.00;0.00;;;12.00;76.90;;;;;;5072748;28;20246;-40
2023/12/23 03:26:19;;;;;;;0.00;0.00;;;12.00;76.80;;;;;;5067645;28;20709;-39
2023/12/23 03:28:49;;;;;;;0.00;0.00;;;12.00;76.80;;;;;;5067370;28;20218;-40
2023/12/23 03:31:16;;;;;;;0.00;0.00;;;12.00;76.80;;;;;;5076528;28;20658;-39
2023/12/23 03:33:46;;;;;;;0.00;0.00;;;12.00;76.90;;;;;;5077880;28;20647;-24
2023/12/23 03:36:13;;;;;;;0.00;0.00;;;12.00;76.90;;;;;;5058415;28;20229;-24
2023/12/23 03:38:45;;;;;;;0.00;0.00;;;12.00;77.00;;;;;;5063130;28;20210;-23
2023/12/23 03:41:14;;;;;;;0.00;0.00;;;12.00;77.00;;;;;;5058708;28;20215;-23
2023/12/23 03:43:42;;;;;;;0.00;0.00;;;12.00;76.90;;;;;;5073754;28;20249;-24
2023/12/23 03:46:09;;;;;;;0.00;0.00;;;12.00;76.80;;;;;;5079071;28;20309;-23
2023/12/23 03:48:36;;;;;;;0.00;0.00;;;12.00;76.80;;;;;;5073788;28;20305;-23
2023/12/23 03:51:04;;;;;;;0.00;0.00;;;12.00;76.90;;;;;;5083394;28;20202;-23
2023/12/23 03:53:33;;;;;;;0.00;0.00;;;12.00;76.60;;;;;;5087374;28;20960;-23
2023/12/23 03:56:05;;;;;;;0.00;0.00;;;12.00;77.00;;;;;;5064920;28;20701;-24
2023/12/23 03:58:32;;;;;;;0.00;0.00;;;12.00;76.80;;;;;;5085898;28;20207;-24
2023/12/23 04:01:02;;;;;;;0.00;0.00;;;12.00;76.80;;;;;;5080226;28;20764;-24
2023/12/23 04:03:30;;;;;;;0.00;0.00;;;12.00;77.00;;;;;;5084263;28;20207;-23
2023/12/23 04:06:00;;;;;;;0.00;0.00;;;12.00;76.90;;;;;;5082431;28;20245;-23
2023/12/23 04:08:34;;;;;;;0.00;0.00;;;12.00;76.80;;;;;;5084432;28;20582;-23
2023/12/23 04:11:04;;;;;;;0.00;0.00;;;12.00;76.80;;;;;;5083504;28;20195;-23
2023/12/23 04:13:33;;;;;;;0.00;0.00;;;12.00;76.90;;;;;;5085469;28;20235;-24
2023/12/23 04:16:06;;;;;;;0.00;0.00;;;12.00;76.90;;;;;;5085310;28;20593;-23
2023/12/23 04:18:34;;;;;;;0.00;0.00;;;12.00;76.80;;;;;;5080127;28;20204;-23
2023/12/23 04:21:01;;;;;;;0.00;0.00;;;12.00;76.80;;;;;;5073877;28;20326;-23
2023/12/23 04:23:28;;;;;;;0.00;0.00;;;12.00;76.50;;;;;;5076240;28;20210;-23
2023/12/23 04:25:56;;;;;;;0.00;0.00;;;12.00;76.90;;;;;;5076152;28;20692;-23
2023/12/23 04:28:25;;;;;;;0.00;0.00;;;12.00;76.90;;;;;;5057412;28;20289;-23
2023/12/23 04:30:58;;;;;;;0.00;0.00;;;12.00;76.80;;;;;;5077166;28;20195;-23
2023/12/23 04:33:25;;;;;;;0.00;0.00;;;12.00;77.00;;;;;;5084528;28;20665;-23
2023/12/23 04:35:56;;;;;;;0.00;0.00;;;12.00;76.80;;;;;;5076883;28;20206;-23
2023/12/23 04:38:31;;;;;;;0.00;0.00;;;12.00;76.90;;;;;;5073698;28;20203;-23
2023/12/23 04:41:00;;;;;;;0.00;0.00;;;12.00;76.90;;;;;;5073515;28;20207;-23
2023/12/23 04:43:32;;;;;;;0.00;0.00;;;12.00;77.00;;;;;;5077533;28;20207;-23
2023/12/23 04:46:02;;;;;;;0.00;0.00;;;12.00;76.90;;;;;;5072796;28;20328;-24
2023/12/23 04:48:32;;;;;;;0.00;0.00;;;12.00;76.90;;;;;;5074049;28;20215;-23
2023/12/23 04:51:03;;;;;;;0.00;0.00;;;12.00;76.80;;;;;;5092303;28;21201;-23
2023/12/23 04:53:35;;;;;;;0.00;0.00;;;12.10;77.00;;;;;;5075013;28;20256;-23
2023/12/23 04:56:07;;;;;;;0.00;0.00;;;12.10;76.80;;;;;;5077782;28;20218;-23
2023/12/23 04:58:37;;;;;;;0.00;0.00;;;12.00;76.80;;;;;;5072899;28;20568;-24
2023/12/23 05:01:06;;;;;;;0.00;0.00;;;12.00;76.80;;;;;;5078746;28;20673;-24
2023/12/23 05:03:36;;;;;;;0.00;0.00;;;12.00;76.80;;;;;;5079636;28;20195;-24
2023/12/23 05:06:03;;;;;;;0.00;0.00;;;12.00;76.90;;;;;;5080834;28;20237;-24
2023/12/23 05:08:30;;;;;;;0.00;0.00;;;12.00;77.00;;;;;;5077093;28;20290;-24
2023/12/23 05:11:02;;;;;;;0.00;0.00;;;12.00;76.80;;;;;;5078592;28;20284;-24
2023/12/23 05:13:31;;;;;;;0.00;0.00;;;12.00;77.10;;;;;;5078443;28;20219;-24
2023/12/23 05:15:59;;;;;;;0.00;0.00;;;12.00;77.00;;;;;;5070706;28;20594;-24
2023/12/23 05:18:28;;;;;;;0.00;0.00;;;12.00;77.10;;;;;;5054082;28;20203;-24
2023/12/23 05:20:58;;;;;;;0.00;0.00;;;12.00;77.10;;;;;;5075692;28;20211;-24
2023/12/23 05:23:28;;;;;;;0.00;0.00;;;12.00;77.10;;;;;;5077063;28;20218;-24
2023/12/23 05:25:58;;;;;;;0.00;0.00;;;12.00;77.10;;;;;;5065772;28;20211;-24
2023/12/23 05:28:31;;;;;;;0.00;0.00;;;12.00;77.10;;;;;;5069861;28;20199;-24
2023/12/23 05:30:58;;;;;;;0.00;0.00;;;12.00;77.10;;;;;;5074828;28;20384;-24
2023/12/23 05:33:28;;;;;;;0.00;0.00;;;12.00;77.10;;;;;;5075686;28;20311;-24
2023/12/23 05:35:57;;;;;;;0.00;0.00;;;12.00;77.10;;;;;;5055602;28;20223;-24
2023/12/23 05:38:30;;;;;;;0.00;0.00;;;11.90;77.00;;;;;;5079855;28;20195;-24
2023/12/23 05:41:00;;;;;;;0.00;0.00;;;12.00;77.10;;;;;;5095159;28;20638;-24
2023/12/23 05:43:28;;;;;;;0.00;0.00;;;12.00;77.10;;;;;;5079499;28;20195;-24
2023/12/23 05:45:57;;;;;;;0.00;0.00;;;12.00;77.10;;;;;;5063004;28;20198;-24
2023/12/23 05:48:27;;;;;;;0.00;0.00;;;11.90;77.20;;;;;;5080394;28;20209;-24
2023/12/23 05:50:56;;;;;;;0.00;0.00;;;11.90;77.20;;;;;;5080752;28;20203;-24
2023/12/23 05:53:26;;;;;;;0.00;0.00;;;11.90;77.20;;;;;;5080976;28;20200;-24
2023/12/23 05:55:53;;;;;;;0.00;0.00;;;12.00;77.30;;;;;;5077081;28;20215;-24
2023/12/23 05:58:21;;;;;;;0.00;0.00;;;12.00;77.30;;;;;;5070495;28;20659;-24
2023/12/23 06:00:50;;;;;;;0.00;0.00;;;12.00;77.30;;;;;;5068513;28;20223;-24
2023/12/23 06:03:17;;;;;;;0.00;0.00;;;11.90;77.20;;;;;;5090977;28;20286;-24
2023/12/23 06:05:45;;;;;;;0.00;0.00;;;12.00;77.30;;;;;;5085840;28;20232;-24
2023/12/23 06:08:12;;;;;;;0.00;0.00;;;12.00;77.10;;;;;;5082075;28;20211;-24
2023/12/23 06:10:42;;;;;;;0.00;0.00;;;12.00;77.30;;;;;;5081952;28;20269;-24
2023/12/23 06:13:26;;;;;;;0.00;0.00;;;12.00;77.20;;;;;;5080301;28;20302;-24
2023/12/23 06:15:55;;;;;;;0.00;0.00;;;12.00;77.20;;;;;;5079864;28;20247;-24
2023/12/23 06:18:22;;;;;;;0.00;0.00;;;12.00;77.30;;;;;;5074753;28;20814;-24
2023/12/23 06:20:54;;;;;;;0.00;0.00;;;12.00;77.30;;;;;;5067776;28;20203;-24
2023/12/23 06:23:24;;;;;;;0.00;0.00;;;12.00;77.30;;;;;;5075575;28;20562;-24
2023/12/23 06:25:56;;;;;;;0.00;0.00;;;12.00;77.20;;;;;;5074109;28;20214;-24
2023/12/23 06:28:26;;;;;;;0.00;0.00;;;12.00;77.30;;;;;;5072132;28;20316;-40
2023/12/23 06:30:53;;;;;;;0.00;0.00;;;12.00;77.30;;;;;;5075250;28;20199;-40
2023/12/23 06:33:20;;;;;;;0.00;0.00;;;12.00;77.30;;;;;;5074744;28;20211;-39
2023/12/23 06:35:50;;;;;;;0.00;0.00;;;12.00;77.30;;;;;;5066756;28;20265;-40
2023/12/23 06:38:21;;;;;;;0.00;0.00;;;12.00;77.20;;;;;;5092964;28;20249;-39
2023/12/23 06:40:49;;;;;;;0.00;0.00;;;12.00;77.20;;;;;;5073365;28;20286;-40
2023/12/23 06:43:19;;;;;;;0.00;0.00;;;12.00;77.20;;;;;;5074272;28;20230;-40
2023/12/23 06:46:10;;;;;;;0.00;0.00;;;12.00;77.10;;;;;;5073889;28;20244;-40
2023/12/23 06:48:40;;;;;;;0.00;0.00;;;12.00;77.20;;;;;;5081479;28;20202;-40
2023/12/23 06:51:07;;;;;;;0.00;0.00;;;12.00;77.20;;;;;;5077424;28;20223;-40
2023/12/23 06:53:35;;;;;;;0.00;0.00;;;12.00;77.20;;;;;;5079806;28;20199;-40
2023/12/23 06:56:08;;;;;;;0.00;0.00;;;12.00;77.00;;;;;;5079651;28;20696;-40
2023/12/23 06:58:36;;;;;;;0.00;0.00;;;12.10;77.20;;;;;;5076353;28;20223;-40
2023/12/23 07:01:03;;;;;;;0.00;0.00;;;12.10;77.20;;;;;;5075393;28;20264;-39
2023/12/23 07:03:32;;;;;;;0.00;0.00;;;12.00;77.20;;;;;;5078210;28;20200;-39
2023/12/23 07:06:03;;;;;;;0.00;0.00;;;12.10;77.20;;;;;;5066925;28;20266;-40
2023/12/23 07:08:30;;;;;;;0.00;0.00;;;12.00;77.00;;;;;;5082425;28;20608;-39
2023/12/23 07:11:00;;;;;;;0.00;0.00;;;12.00;77.00;;;;;;5069868;28;20202;-39
2023/12/23 07:13:30;;;;;;;0.00;0.00;;;12.10;77.00;;;;;;5088825;28;20220;-39
2023/12/23 07:16:00;;;;;;;0.00;0.00;;;12.10;77.10;;;;;;5084979;28;20218;-39
2023/12/23 07:18:27;;;;;;;0.00;0.00;;;12.10;77.10;;;;;;5086104;28;20222;-39
2023/12/23 07:20:56;;;;;;;0.00;0.00;;;12.10;77.00;;;;;;5085438;28;20294;-40
2023/12/23 07:23:24;;;;;;;0.00;0.00;;;12.10;77.00;;;;;;5059341;28;20199;-40
2023/12/23 07:25:51;;;;;;;0.00;0.00;;;12.10;77.10;;;;;;5070891;28;20337;-40
2023/12/23 07:28:21;;;;;;;0.00;0.00;;;12.10;77.80;;;;;;5088246;28;20215;-39
2023/12/23 07:30:53;;;;;;;0.00;0.00;;;12.10;77.00;;;;;;5074900;28;20208;-39
2023/12/23 07:33:25;;;;;;;0.00;0.00;;;12.10;76.70;;;;;;5084249;28;20199;-39
2023/12/23 07:35:55;;;;;;;0.00;0.00;;;12.10;77.00;;;;;;5085606;28;20672;-39
2023/12/23 07:38:27;;;;;;;0.00;0.00;;;12.10;76.90;;;;;;5087777;28;20594;-39
2023/12/23 07:40:57;;;;;;;0.00;0.00;;;12.10;77.10;;;;;;5085918;28;20202;-39
2023/12/23 07:43:29;;;;;;;0.00;0.00;;;12.10;77.00;;;;;;5086184;28;20316;-39
2023/12/23 07:46:01;;;;;;;0.00;0.00;;;12.20;77.20;;;;;;5082345;28;20578;-39
2023/12/23 07:48:30;;;;;;;0.00;0.00;;;12.20;77.00;;;;;;5067842;28;20609;-39
2023/12/23 07:50:57;;;;;;;0.00;0.00;;;12.20;77.10;;;;;;5073841;28;20541;-39
2023/12/23 07:53:29;;;;;;;0.00;0.00;;;12.20;77.00;;;;;;5079754;28;20669;-39
2023/12/23 07:55:58;;;;;;;0.00;0.00;;;12.10;76.80;;;;;;5087138;28;20221;-39
2023/12/23 07:58:30;;;;;;;0.00;0.00;;;12.10;76.90;;;;;;5070293;28;20199;-39
2023/12/23 08:01:01;;;;;;;0.00;0.00;;;12.20;77.10;;;;;;5086373;28;20259;-39
2023/12/23 08:03:31;;;;;;;0.00;0.00;;;12.20;76.80;;;;;;5080087;28;20207;-40
2023/12/23 08:06:00;;;;;;;0.00;0.00;;;12.10;76.90;;;;;;5066667;28;20593;-39
2023/12/23 08:08:28;;;;;;;0.00;0.00;;;12.10;77.00;;;;;;5072709;28;20202;-39
2023/12/23 08:10:58;;;;;;;0.00;0.00;;;12.20;77.10;;;;;;5079822;28;20290;-39
2023/12/23 08:13:29;;;;;;;0.00;0.00;;;12.20;76.90;;;;;;5086640;28;20280;-38
2023/12/23 08:15:59;;;;;;;0.00;0.00;;;12.10;77.00;;;;;;5085871;28;20202;-39
2023/12/23 08:18:32;;;;;;;0.00;0.00;;;12.20;77.00;;;;;;5082127;28;20592;-39
2023/12/23 08:21:03;;;;;;;0.00;0.00;;;12.20;77.00;;;;;;5084027;28;20210;-39
2023/12/23 08:23:30;;;;;;;0.00;0.00;;;12.20;77.10;;;;;;5083220;28;20199;-38
2023/12/23 08:25:59;;;;;;;0.00;0.00;;;12.20;77.10;;;;;;5066652;28;20195;-38
2023/12/23 08:28:27;;;;;;;0.00;0.00;;;12.20;77.10;;;;;;5079269;28;20242;-39
2023/12/23 08:30:56;;;;;;;0.00;0.00;;;12.20;77.00;;;;;;5080683;28;20210;-38
2023/12/23 08:33:24;;;;;;;0.00;0.00;;;12.20;77.00;;;;;;5085169;28;20238;-39
2023/12/23 08:35:54;;;;;;;0.00;0.00;;;12.20;77.10;;;;;;5084859;28;20908;-39
2023/12/23 08:38:22;;;;;;;0.00;0.00;;;12.20;77.10;;;;;;5078979;28;20227;-39
2023/12/23 08:40:56;;;;;;;0.00;0.00;;;12.30;76.90;;;;;;5069325;28;20197;-39
2023/12/23 08:43:26;;;;;;;0.00;0.00;;;12.30;76.90;;;;;;5088197;28;20191;-39
2023/12/23 08:45:53;;;;;;;0.00;0.00;;;12.30;77.10;;;;;;5085722;28;20294;-39
2023/12/23 08:48:23;;;;;;;0.00;0.00;;;12.30;76.90;;;;;;5066066;28;20198;-39
2023/12/23 08:50:50;;;;;;;0.00;0.00;;;12.30;76.90;;;;;;5084445;28;20621;-40
2023/12/23 08:53:18;;;;;;;0.00;0.00;;;12.30;77.00;;;;;;5084317;28;20223;-40
2023/12/23 08:55:48;;;;;;;0.00;0.00;;;12.30;77.00;;;;;;5084049;28;20309;-39
2023/12/23 08:58:18;;;;;;;0.00;0.00;;;12.30;77.00;;;;;;5086638;28;20221;-39
2023/12/23 09:00:45;;;;;;;0.00;0.00;;;12.30;76.60;;;;;;5082878;28;20210;-40
2023/12/23 09:03:13;;;;;;;0.00;0.00;;;12.40;76.90;;;;;;5078050;28;20723;-40
2023/12/23 09:05:42;;;;;;;0.00;0.00;;;12.30;76.40;;;;;;5085300;28;20222;-39
2023/12/23 09:08:12;;;;;;;0.00;0.00;;;12.40;77.00;;;;;;5086958;28;20202;-40
2023/12/23 09:10:44;;;;;;;0.00;0.00;;;12.40;76.90;;;;;;5080815;28;20207;-39
2023/12/23 09:13:14;;;;;;;0.00;0.00;;;12.40;76.40;;;;;;5077527;28;20294;-39
2023/12/23 09:15:43;;;;;;;0.00;0.00;;;12.40;77.40;;;;;;5083732;28;20218;-39
2023/12/23 09:18:17;;;;;;;0.00;0.00;;;12.40;76.50;;;;;;5070512;28;20203;-39
2023/12/23 09:20:47;;;;;;;0.00;0.00;;;12.40;76.80;;;;;;5081699;28;20252;-38
2023/12/23 09:23:16;;;;;;;0.00;0.00;;;12.40;76.80;;;;;;5081634;28;20214;-39
2023/12/23 09:25:45;;;;;;;0.00;0.00;;;12.40;76.70;;;;;;5082926;28;20671;-39
2023/12/23 09:28:13;;;;;;;0.00;0.00;;;12.50;76.80;;;;;;5087923;28;20283;-38
2023/12/23 09:30:45;;;;;;;0.00;0.00;;;12.40;76.90;;;;;;5085016;28;20592;-38
2023/12/23 09:33:21;;;;;;;0.00;0.00;;;12.40;76.80;;;;;;5087376;28;20576;-39
2023/12/23 09:35:51;;;;;;;0.00;0.00;;;12.50;76.50;;;;;;5069797;28;20195;-39
2023/12/23 09:38:20;;;;;;;0.00;0.00;;;12.50;76.60;;;;;;5089713;28;20674;-39
2023/12/23 09:40:50;;;;;;;0.00;0.00;;;12.50;76.80;;;;;;5068770;28;20302;-39
2023/12/23 09:43:19;;;;;;;0.00;0.00;;;12.50;76.80;;;;;;5069297;28;20199;-39
2023/12/23 09:45:48;;;;;;;0.00;0.00;;;12.50;76.60;;;;;;5086491;28;20243;-38
2023/12/23 09:48:16;;;;;;;0.00;0.00;;;12.50;76.90;;;;;;5069786;28;20588;-38
2023/12/23 09:50:47;;;;;;;0.00;0.00;;;12.50;76.80;;;;;;5080623;28;20684;-39
2023/12/23 09:53:22;;;;;;;0.00;0.00;;;12.50;76.80;;;;;;5084960;28;20199;-38
2023/12/23 09:55:52;;;;;;;0.00;0.00;;;12.60;76.40;;;;;;5078620;28;20210;-39
2023/12/23 09:58:19;;;;;;;0.00;0.00;;;12.60;75.90;;;;;;5086412;28;20246;-39
2023/12/23 10:00:49;;;;;;;0.00;0.00;;;12.50;76.50;;;;;;5086168;28;20216;-39
2023/12/23 10:03:23;;;;;;;0.00;0.00;;;12.60;76.80;;;;;;5087701;28;20197;-40
2023/12/23 10:06:00;;;;;;;0.00;0.00;;;12.60;76.80;;;;;;5078015;28;20684;-38
2023/12/23 10:08:33;;;;;;;0.00;0.00;;;12.60;76.80;;;;;;5075059;28;20203;-39
2023/12/23 10:11:05;;;;;;;0.00;0.00;;;12.60;76.70;;;;;;5086990;28;20637;-39
2023/12/23 10:13:35;;;;;;;0.00;0.00;;;12.60;76.60;;;;;;5088108;28;20304;-39
2023/12/23 10:16:06;;;;;;;0.00;0.00;;;12.60;76.70;;;;;;5088672;28;20198;-39
2023/12/23 10:18:33;;;;;;;0.00;0.00;;;12.60;76.60;;;;;;5086857;28;20214;-39
2023/12/23 10:21:04;;;;;;;0.00;0.00;;;12.60;76.50;;;;;;5078939;28;20570;-39
2023/12/23 10:23:33;;;;;;;0.00;0.00;;;12.60;76.40;;;;;;5088280;28;20579;-39
2023/12/23 10:26:04;;;;;;;0.00;0.00;;;12.60;76.60;;;;;;5088721;28;20298;-39
2023/12/23 10:28:35;;;;;;;0.00;0.00;;;12.70;76.60;;;;;;5088433;28;20222;-39
2023/12/23 10:31:13;;;;;;;0.00;0.00;;;12.60;76.60;;;;;;5083345;28;20322;-39
2023/12/23 10:33:50;;;;;;;0.00;0.00;;;12.70;76.50;;;;;;5068627;28;20265;-39
2023/12/23 10:36:26;;;;;;;0.00;0.00;;;12.70;76.20;;;;;;5070445;28;20716;-39
2023/12/23 10:39:00;;;;;;;0.00;0.00;;;12.70;76.50;;;;;;5083243;28;20637;-39
2023/12/23 10:41:41;;;;;;;0.00;0.00;;;12.70;76.40;;;;;;5087510;28;20205;-39
2023/12/23 10:44:10;;;;;;;0.00;0.00;;;12.70;76.40;;;;;;5088134;28;20198;-39
2023/12/23 10:46:37;;;;;;;0.00;0.00;;;12.70;76.70;;;;;;5088443;28;20199;-39
2023/12/23 10:49:09;;;;;;;0.00;0.00;;;12.80;76.70;;;;;;5086746;28;20273;-39
2023/12/23 10:51:42;;;;;;;0.00;0.00;;;12.80;76.60;;;;;;5080707;28;20305;-38
2023/12/23 10:54:12;;;;;;;0.00;0.00;;;12.80;76.70;;;;;;5083587;28;20293;-38
2023/12/23 10:56:45;;;;;;;0.00;0.00;;;12.80;76.50;;;;;;5068069;28;20195;-38
2023/12/23 10:59:14;;;;;;;0.00;0.00;;;12.90;76.30;;;;;;5083915;28;20617;-38
2023/12/23 11:01:46;;;;;;;0.00;0.00;;;12.90;76.20;;;;;;5077917;28;20235;-39
2023/12/23 11:04:15;;;;;;;0.00;0.00;;;12.90;76.20;;;;;;5077720;28;20633;-39
2023/12/23 11:06:47;;;;;;;0.00;0.00;;;12.90;76.60;;;;;;5073410;28;20204;-39
2023/12/23 11:09:16;;;;;;;0.00;0.00;;;12.90;76.20;;;;;;5083368;28;20248;-39
2023/12/23 11:11:47;;;;;;;0.00;0.00;;;12.90;76.20;;;;;;5065390;28;20211;-39
2023/12/23 11:14:20;;;;;;;0.00;0.00;;;12.90;76.10;;;;;;5074293;28;20211;-39
2023/12/23 11:16:50;;;;;;;0.00;0.00;;;12.90;76.50;;;;;;5083077;28;20546;-39
2023/12/23 11:19:20;;;;;;;0.00;0.00;;;13.00;76.50;;;;;;5088154;28;20203;-39
2023/12/23 11:21:47;;;;;;;0.00;0.00;;;13.00;76.20;;;;;;5079061;28;20282;-39
2023/12/23 11:24:33;;;;;;;0.00;0.00;;;13.00;76.50;;;;;;5085845;28;20570;-39
2023/12/23 11:27:00;;;;;;;0.00;0.00;;;13.00;76.30;;;;;;5085527;28;20196;-39
2023/12/23 11:29:30;;;;;;;0.00;0.00;;;13.00;76.30;;;;;;5080866;28;20403;-39
2023/12/23 11:32:13;;;;;;;0.00;0.00;;;13.00;76.00;;;;;;5085555;28;20859;-39
2023/12/23 11:34:44;;;;;;;0.00;0.00;;;13.00;76.30;;;;;;5087250;28;20246;-39
2023/12/23 11:37:14;;;;;;;0.00;0.00;;;13.00;76.40;;;;;;5082687;28;20326;-39
2023/12/23 11:39:42;;;;;;;0.00;0.00;;;13.00;76.30;;;;;;5082406;28;20199;-39
2023/12/23 11:42:12;;;;;;;0.00;0.00;;;13.00;76.30;;;;;;5087621;28;21028;-39
2023/12/23 11:44:43;;;;;;;0.00;0.00;;;13.00;76.40;;;;;;5087054;28;20260;-39
2023/12/23 11:47:13;;;;;;;0.00;0.00;;;13.00;76.30;;;;;;5084509;28;20231;-23
2023/12/23 11:49:40;;;;;;;0.00;0.00;;;13.10;76.20;;;;;;5087586;28;20581;-23
2023/12/23 11:52:10;;;;;;;0.00;0.00;;;13.10;76.50;;;;;;5082932;28;20215;-23
2023/12/23 11:54:38;;;;;;;0.00;0.00;;;13.10;76.30;;;;;;5069323;28;20237;-23
2023/12/23 11:57:05;;;;;;;0.00;0.00;;;13.10;76.40;;;;;;5086469;28;20214;-23
2023/12/23 11:59:35;;;;;;;0.00;0.00;;;13.10;76.30;;;;;;5075065;28;20314;-23
2023/12/23 12:02:03;;;;;;;0.00;0.00;;;13.10;76.10;;;;;;5076508;28;20299;-23
2023/12/23 12:04:31;;;;;;;0.00;0.00;;;13.20;76.00;;;;;;5072476;28;20239;-23
2023/12/23 12:07:05;;;;;;;0.00;0.00;;;13.20;76.00;;;;;;5074830;28;20685;-23
2023/12/23 12:09:37;;;;;;;0.00;0.00;;;13.20;76.10;;;;;;5085606;28;20245;-23
2023/12/23 12:12:05;;;;;;;0.00;0.00;;;13.20;75.90;;;;;;5075982;28;20238;-23
2023/12/23 12:14:32;;;;;;;0.00;0.00;;;13.20;76.00;;;;;;5077874;28;20869;-23
2023/12/23 12:16:59;;;;;;;0.00;0.00;;;13.20;76.20;;;;;;5075345;28;20206;-23
2023/12/23 12:19:26;;;;;;;0.00;0.00;;;13.20;76.30;;;;;;5071534;28;20948;-23
2023/12/23 12:21:53;;;;;;;0.00;0.00;;;13.20;76.00;;;;;;5070423;28;20191;-23
2023/12/23 12:24:26;;;;;;;0.00;0.00;;;13.30;76.30;;;;;;5084762;28;20205;-23
2023/12/23 12:26:55;;;;;;;0.00;0.00;;;13.30;76.00;;;;;;5048772;28;20206;-23
2023/12/23 12:29:25;;;;;;;0.00;0.00;;;13.30;76.20;;;;;;5067465;28;20223;-23
2023/12/23 12:31:57;;;;;;;0.00;0.00;;;13.30;76.10;;;;;;5087706;28;20426;-23
2023/12/23 12:34:24;;;;;;;0.00;0.00;;;13.30;75.80;;;;;;5074304;28;20203;-23
2023/12/23 12:36:54;;;;;;;0.00;0.00;;;13.30;75.90;;;;;;5074598;28;20772;-23
2023/12/23 12:39:24;;;;;;;0.00;0.00;;;13.30;76.10;;;;;;5076370;28;20229;-23
2023/12/23 12:41:53;;;;;;;0.00;0.00;;;13.30;76.00;;;;;;5085721;28;20305;-23
2023/12/23 12:44:21;;;;;;;0.00;0.00;;;13.30;76.20;;;;;;5083706;28;20218;-23
2023/12/23 12:46:59;;;;;;;0.00;0.00;;;13.30;76.30;;;;;;5084462;28;20203;-23
2023/12/23 12:49:26;;;;;;;0.00;0.00;;;13.30;76.10;;;;;;5086113;28;20695;-23
2023/12/23 12:51:54;;;;;;;0.00;0.00;;;13.40;76.40;;;;;;5080257;28;20214;-23
2023/12/23 12:54:25;;;;;;;0.00;0.00;;;13.40;76.00;;;;;;5082380;28;20596;-23
2023/12/23 12:56:52;;;;;;;0.00;0.00;;;13.40;75.90;;;;;;5074265;28;20214;-22
2023/12/23 12:59:20;;;;;;;0.00;0.00;;;13.40;75.90;;;;;;5092102;28;20318;-27
2023/12/23 13:01:47;;;;;;;0.00;0.00;;;13.40;75.60;;;;;;5085019;28;20214;-23